Terminal Aerodrome Forecast
Issued by NWS Charleston, WV

Current Version | Previous Version | Graphics & Text | Print | Product List | Glossary On
Versions: 1 2 3 4 5 6 7 8 9 10 11 12 13 14 15 16 17 18 19 20 21 22 23 24 25 26 27 28 29
000
FTUS41 KRLX 192100 AAA
TAFEKN
TAF AMD
KEKN 192132Z 1922/2018 VRB03KT P6SM SCT035
     FM200200 VRB03KT 5SM BR SCT250
     FM200500 00000KT 3SM BR BKN002
     FM200900 00000KT 1SM -SHRA BR SCT005 BKN025
     FM201200 VRB03KT 3SM -SHRA BR OVC020
     FM201500 22003KT 5SM HZ BKN025=

USA.gov is the U.S. government's official web portal to all federal, state and local government web resources and services.